Webster, MA (01570)

8:26 AM EDT on August 23, 2017 (GMT -0400)
High Pond | | Change Station

Elev 505 ft 42.05 °N, 71.90 °W | Updated 13 seconds ago

Mostly Cloudy
Mostly Cloudy
72.5 °F
Feels Like 71 °F
N
1.0
Wind Variable Wind from West

Today
High -- | Low -- °F
--% Chance of Precip.
Yesterday
High -- | Low -- °F
Precip. -- in
Pressure 29.75 in
Visibility 10.0 miles
Clouds Scattered Clouds 4300 ft
Heat Index 71 °F
Dew Point 67 °F
Humidity 85%
Rainfall 0.20 in
Snow Depth Not available.
6:03 AM 7:35 PM
Waxing Crescent, 4% visible
METAR KORH 231154Z 27010KT 10SM SCT043 21/18 A2977 RMK AO2 SLP075 60001 70022 T02110178 10222 20211 51013
Pressure 29.75 in
Visibility 10.0 miles
Clouds Scattered Clouds 4300 ft
Heat Index 71 °F
Dew Point 67 °F
Humidity 85%
Rainfall 0.20 in
Snow Depth Not available.
6:03 AM 7:35 PM
Waxing Crescent, 4% visible
METAR KORH 231154Z 27010KT 10SM SCT043 21/18 A2977 RMK AO2 SLP075 60001 70022 T02110178 10222 20211 51013

Get Severe Weather Alerts

Thanks for signing up!

Be on the lookout for a verification email in your inbox.

You'll start receiving the daily forecast at 6 AM.

×

10-Day Weather Forecast

Almanac

Astronomy

Aug. 23, 2017 Rise Set
Actual Time
Civil Twilight
Nautical Twilight
Astronomical Twilight
Moon
Length of Visible Light
Length of Day
Tomorrow will be .
, % of the Moon is Illuminated

Today's Extremes

State Highs State Lows

Community

WunderPhotos

Category 6

Welcome to Category 6. This is the collective home for Weather Underground's featured writeups by Dr. Jeff Masters (right), Bob Henson (left), Chris Burt, and other regular contributors.

Nearby

Air Quality

  Air Quality AQ Index Pollutant
Not available.

Snow Depth

Station Depth Elevation

Earthquake Activity

City Distance Mag. Time & Date
Minimum magnitude displayed is 2.5.

Coastal Water Temperatures

Place Temperature

Stations

Nearby Weather Stations

Station Location Temp. Windchill Dew Point Humidity Wind Precip. Elev Updated Type
                   

Watches & Warnings

There are currently no watches in effect.